Time;durP1;ratioP1;P1;durP2;ratioP2;P2;SDS_P1;SDS_P2;PMS_P1;PMS_P2;Temp;Humidity;BMP_temperature;BMP_pressure;BME280_temperature;BME280_humidity;BME280_pressure;Samples;Min_cycle;Max_cycle;Signal;HPM_P1;HPM_P2
2023/09/03 00:01:17;;;;;;;;;21.50;19.75;;;;;17.02;80.93;100739.19;5094986;28;8854;-58
2023/09/03 00:03:45;;;;;;;;;17.60;16.00;;;;;16.99;80.90;100743.00;5095597;28;8836;-59
2023/09/03 00:06:13;;;;;;;;;21.25;19.50;;;;;16.97;81.25;100747.69;5094860;28;8818;-58
2023/09/03 00:08:41;;;;;;;;;23.00;19.00;;;;;16.96;81.35;100739.75;5094987;28;8908;-57
2023/09/03 00:11:09;;;;;;;;;32.40;26.80;;;;;16.94;81.04;100736.38;5095058;28;8928;-60
2023/09/03 00:13:36;;;;;;;;;23.00;19.80;;;;;16.92;80.63;100731.13;5094521;28;8841;-59
2023/09/03 00:16:04;;;;;;;;;24.40;21.20;;;;;16.91;81.11;100732.09;5094983;28;8849;-58
2023/09/03 00:18:32;;;;;;;;;26.00;23.00;;;;;16.92;81.04;100735.63;5094752;28;9567;-57
2023/09/03 00:21:01;;;;;;;;;25.00;24.00;;;;;16.93;80.73;100738.19;5094662;28;8826;-57
2023/09/03 00:23:28;;;;;;;;;20.80;16.60;;;;;16.96;80.82;100743.31;5094246;28;8846;-59
2023/09/03 00:25:57;;;;;;;;;35.50;28.00;;;;;16.99;80.49;100737.63;5094421;28;8833;-60
2023/09/03 00:28:24;;;;;;;;;25.80;23.60;;;;;17.00;80.60;100736.63;5094300;28;8814;-60
2023/09/03 00:30:52;;;;;;;;;29.60;24.20;;;;;17.01;80.94;100735.63;5093905;28;8857;-57
2023/09/03 00:33:20;;;;;;;;;29.25;24.50;;;;;17.00;80.57;100742.00;5093848;28;8876;-59
2023/09/03 00:35:47;;;;;;;;;32.00;28.00;;;;;16.97;80.51;100739.63;5094543;28;8837;-57
2023/09/03 00:38:15;;;;;;;;;28.00;23.00;;;;;16.96;80.62;100742.44;5094431;28;8837;-59
2023/09/03 00:40:42;;;;;;;;;17.00;14.50;;;;;16.96;80.83;100748.69;5094461;28;8818;-57
2023/09/03 00:43:10;;;;;;;;;16.40;15.00;;;;;16.98;80.91;100746.69;5094527;28;8834;-58
2023/09/03 00:45:38;;;;;;;;;20.20;15.40;;;;;17.00;80.59;100749.25;5094220;28;8850;-57
2023/09/03 00:48:06;;;;;;;;;25.40;23.20;;;;;17.01;80.77;100746.41;5093856;28;8884;-58
2023/09/03 00:50:33;;;;;;;;;29.40;25.00;;;;;17.04;80.04;100738.06;5094377;28;8837;-58
2023/09/03 00:53:01;;;;;;;;;29.00;24.00;;;;;17.00;79.94;100744.69;5094327;28;8838;-59
2023/09/03 00:55:30;;;;;;;;;21.00;16.00;;;;;16.93;80.72;100731.97;5094572;28;8950;-58
2023/09/03 00:57:58;;;;;;;;;26.00;24.00;;;;;16.84;80.86;100743.56;5094353;28;8834;-60
2023/09/03 01:00:25;;;;;;;;;21.25;18.00;;;;;16.77;80.69;100750.50;5094811;28;8806;-59
2023/09/03 01:02:53;;;;;;;;;26.40;19.80;;;;;16.70;81.54;100755.63;5094757;28;8817;-60
2023/09/03 01:05:20;;;;;;;;;23.25;22.00;;;;;16.63;81.12;100759.84;5094505;28;8960;-59
2023/09/03 01:07:49;;;;;;;;;24.80;21.80;;;;;16.59;81.24;100766.53;5095380;28;8841;-58
2023/09/03 01:10:16;;;;;;;;;30.60;28.00;;;;;16.52;81.59;100768.06;5098041;28;8822;-60
2023/09/03 01:12:44;;;;;;;;;26.20;24.40;;;;;16.48;81.83;100781.94;5099040;28;9502;-57
2023/09/03 01:15:13;;;;;;;;;25.50;24.50;;;;;16.43;81.80;100786.88;5098650;28;8826;-58
2023/09/03 01:17:41;;;;;;;;;23.50;22.00;;;;;16.40;81.68;100787.97;5098597;28;8819;-58
2023/09/03 01:20:09;;;;;;;;;33.00;26.50;;;;;16.38;81.75;100770.28;5098472;28;8865;-58
2023/09/03 01:22:37;;;;;;;;;33.75;28.00;;;;;16.38;81.97;100773.84;5098515;28;9486;-58
2023/09/03 01:25:05;;;;;;;;;22.00;18.00;;;;;16.40;81.40;100776.41;5098244;28;8834;-59
2023/09/03 01:27:32;;;;;;;;;26.00;23.00;;;;;16.42;81.69;100780.63;5097929;28;8810;-58
2023/09/03 01:30:00;;;;;;;;;28.50;25.00;;;;;16.44;81.47;100770.59;5098149;28;9487;-57
2023/09/03 01:32:28;;;;;;;;;28.50;27.00;;;;;16.48;81.55;100765.78;5098028;28;8837;-58
2023/09/03 01:34:55;;;;;;;;;36.50;30.25;;;;;16.46;81.50;100762.38;5098486;28;8830;-58
2023/09/03 01:37:23;;;;;;;;;35.50;30.25;;;;;16.44;81.53;100762.53;5099040;28;8830;-57
2023/09/03 01:39:51;;;;;;;;;18.50;17.75;;;;;16.41;81.60;100768.16;5097355;28;8830;-57
2023/09/03 01:42:19;;;;;;;;;29.25;24.75;;;;;16.39;81.78;100772.84;5098214;28;8829;-59
2023/09/03 01:44:46;;;;;;;;;23.50;23.25;;;;;16.38;81.98;100777.53;5097489;28;8850;-59
2023/09/03 01:47:14;;;;;;;;;20.00;18.50;;;;;16.36;81.83;100775.78;5098168;28;8822;-57
2023/09/03 01:49:41;;;;;;;;;30.00;27.00;;;;;16.38;81.42;100781.91;5098146;28;9530;-60
2023/09/03 01:52:09;;;;;;;;;30.50;27.75;;;;;16.41;81.02;100788.84;5098060;28;9519;-60
2023/09/03 01:54:37;;;;;;;;;26.25;25.75;;;;;16.44;81.28;100794.81;5098271;28;8830;-60
2023/09/03 01:57:05;;;;;;;;;28.75;23.50;;;;;16.46;80.87;100786.56;5098025;28;8835;-60
2023/09/03 01:59:33;;;;;;;;;22.25;19.25;;;;;16.46;81.16;100770.44;5098155;28;8833;-58
2023/09/03 02:02:00;;;;;;;;;25.25;25.25;;;;;16.45;81.08;100769.59;5097535;28;9499;-60
2023/09/03 02:04:28;;;;;;;;;32.00;26.50;;;;;16.42;81.39;100777.94;5097475;28;8844;-59
2023/09/03 02:06:56;;;;;;;;;33.75;26.75;;;;;16.39;81.42;100780.03;5097674;28;8842;-62
2023/09/03 02:09:23;;;;;;;;;26.50;23.25;;;;;16.35;81.56;100786.69;5097071;28;8822;-61
2023/09/03 02:11:51;;;;;;;;;24.25;23.00;;;;;16.31;81.88;100783.41;5097255;28;8830;-57
2023/09/03 02:14:19;;;;;;;;;30.75;25.25;;;;;16.29;81.56;100785.41;5097171;28;8825;-58
2023/09/03 02:16:46;;;;;;;;;25.00;19.00;;;;;16.26;81.72;100777.59;5097336;28;8838;-56
2023/09/03 02:19:14;;;;;;;;;27.50;25.75;;;;;16.23;81.84;100780.56;5096247;28;8821;-60
2023/09/03 02:21:41;;;;;;;;;26.25;23.00;;;;;16.26;81.54;100776.75;5096819;28;8837;-60
2023/09/03 02:24:09;;;;;;;;;27.00;27.00;;;;;16.27;81.87;100776.59;5097820;28;8826;-60
2023/09/03 02:26:37;;;;;;;;;23.00;23.00;;;;;16.30;81.17;100786.22;5097510;28;8806;-59
2023/09/03 02:29:04;;;;;;;;;33.75;29.00;;;;;16.36;81.37;100788.38;5097358;28;8834;-60
2023/09/03 02:31:32;;;;;;;;;32.25;27.00;;;;;16.38;81.00;100791.78;5097989;28;8822;-60
2023/09/03 02:34:00;;;;;;;;;26.00;24.25;;;;;16.40;81.47;100782.59;5097180;28;8826;-60
2023/09/03 02:36:28;;;;;;;;;31.75;30.00;;;;;16.41;81.33;100776.25;5097328;28;8830;-59
2023/09/03 02:38:55;;;;;;;;;33.00;30.00;;;;;16.40;81.35;100787.97;5097416;28;8837;-58
2023/09/03 02:41:23;;;;;;;;;26.50;23.50;;;;;16.40;81.09;100781.78;5097243;28;8837;-60
2023/09/03 02:43:50;;;;;;;;;34.50;28.50;;;;;16.38;81.22;100786.41;5096888;28;8834;-59
2023/09/03 02:46:18;;;;;;;;;29.75;26.75;;;;;16.38;81.30;100782.91;5096913;28;8834;-59
2023/09/03 02:48:46;;;;;;;;;13.50;12.50;;;;;16.38;81.13;100796.34;5096829;28;8845;-60
2023/09/03 02:51:13;;;;;;;;;29.25;28.00;;;;;16.38;81.45;100797.16;5096582;28;8838;-60
2023/09/03 02:53:42;;;;;;;;;24.50;23.00;;;;;16.39;80.96;100807.81;5096692;28;8854;-60
2023/09/03 02:56:10;;;;;;;;;36.75;29.50;;;;;16.42;81.48;100812.06;5096421;28;8848;-59
2023/09/03 02:58:38;;;;;;;;;31.00;26.00;;;;;16.45;81.08;100798.31;5096517;28;8814;-59
2023/09/03 03:01:06;;;;;;;;;40.25;33.50;;;;;16.47;80.65;100793.69;5097490;28;8864;-60
2023/09/03 03:03:33;;;;;;;;;33.50;29.00;;;;;16.51;80.89;100790.56;5096032;28;9553;-57
2023/09/03 03:06:01;;;;;;;;;21.75;21.25;;;;;16.53;81.18;100783.22;5096567;28;8846;-58
2023/09/03 03:08:29;;;;;;;;;37.25;32.25;;;;;16.56;80.91;100782.09;5096335;28;8822;-58
2023/09/03 03:10:57;;;;;;;;;40.00;36.00;;;;;16.59;81.09;100777.28;5096155;28;8818;-56
2023/09/03 03:13:25;;;;;;;;;42.25;38.00;;;;;16.61;80.33;100769.03;5095755;28;8841;-57
2023/09/03 03:15:52;;;;;;;;;42.00;36.50;;;;;16.63;80.77;100761.72;5095812;28;8862;-58
2023/09/03 03:18:20;;;;;;;;;44.50;40.50;;;;;16.64;80.79;100758.03;5095768;28;8840;-58
2023/09/03 03:20:48;;;;;;;;;27.25;22.75;;;;;16.64;80.40;100748.09;5094553;28;8829;-59
2023/09/03 03:23:16;;;;;;;;;39.50;36.00;;;;;16.64;80.88;100748.09;5096233;28;8838;-58
2023/09/03 03:25:44;;;;;;;;;42.50;35.00;;;;;16.64;80.42;100742.72;5095828;28;8868;-58
2023/09/03 03:28:12;;;;;;;;;31.50;26.00;;;;;16.65;80.96;100735.50;5095762;28;8838;-58
2023/09/03 03:30:40;;;;;;;;;28.50;24.75;;;;;16.65;80.28;100739.03;5095564;28;8814;-58
2023/09/03 03:33:07;;;;;;;;;24.75;22.00;;;;;16.61;80.31;100732.25;5094758;28;8829;-60
2023/09/03 03:35:35;;;;;;;;;28.00;24.50;;;;;16.55;80.43;100732.81;5095085;28;8826;-58
2023/09/03 03:38:02;;;;;;;;;29.33;24.67;;;;;16.50;80.66;100737.75;5096126;28;8833;-58
2023/09/03 03:40:30;;;;;;;;;35.75;30.00;;;;;16.47;80.91;100739.91;5095575;28;8818;-57
2023/09/03 03:42:58;;;;;;;;;33.25;28.75;;;;;16.45;81.36;100753.47;5095783;28;8867;-58
2023/09/03 03:45:25;;;;;;;;;32.25;28.75;;;;;16.44;80.97;100753.59;5095482;28;8818;-59
2023/09/03 03:47:53;;;;;;;;;31.50;27.75;;;;;16.41;80.92;100762.78;5094326;28;8818;-60
2023/09/03 03:50:20;;;;;;;;;37.50;32.50;;;;;16.40;81.33;100766.47;5094838;28;8898;-58
2023/09/03 03:52:48;;;;;;;;;34.50;30.75;;;;;16.38;80.68;100768.47;5094280;28;8834;-59
2023/09/03 03:55:16;;;;;;;;;39.75;33.00;;;;;16.38;81.57;100764.06;5094594;28;8829;-57
2023/09/03 03:57:43;;;;;;;;;30.50;25.00;;;;;16.38;80.82;100768.47;5095765;28;9522;-58
2023/09/03 04:00:11;;;;;;;;;39.00;35.00;;;;;16.39;81.39;100771.97;5095506;28;9588;-58
2023/09/03 04:02:39;;;;;;;;;41.00;34.00;;;;;16.39;81.32;100783.59;5094000;28;8849;-57
2023/09/03 04:05:07;;;;;;;;;36.25;32.50;;;;;16.40;81.28;100777.22;5093814;28;8834;-57
2023/09/03 04:07:34;;;;;;;;;47.25;35.50;;;;;16.40;81.24;100781.78;5094685;28;8841;-58
2023/09/03 04:10:02;;;;;;;;;36.00;32.00;;;;;16.39;81.32;100783.59;5093577;28;8850;-57
2023/09/03 04:12:30;;;;;;;;;36.00;33.75;;;;;16.38;81.45;100789.97;5093958;28;8833;-57
2023/09/03 04:14:57;;;;;;;;;33.25;31.50;;;;;16.35;81.02;100795.56;5093994;28;8841;-58
2023/09/03 04:17:25;;;;;;;;;35.00;27.25;;;;;16.32;81.52;100801.22;5094875;28;8845;-57
2023/09/03 04:19:53;;;;;;;;;36.00;29.00;;;;;16.31;81.13;100810.28;5095041;28;8838;-58
2023/09/03 04:22:20;;;;;;;;;34.00;30.00;;;;;16.27;81.49;100830.34;5094732;28;8826;-58
2023/09/03 04:24:48;;;;;;;;;31.00;28.50;;;;;16.26;81.31;100844.78;5094989;28;8849;-59
2023/09/03 04:27:15;;;;;;;;;34.00;29.50;;;;;16.26;81.10;100846.66;5093951;28;8856;-58
2023/09/03 04:29:43;;;;;;;;;29.75;23.50;;;;;16.23;81.64;100845.06;5093832;28;8821;-59
2023/09/03 04:32:11;;;;;;;;;21.75;21.00;;;;;16.22;81.15;100847.06;5094455;28;8841;-59
2023/09/03 04:34:39;;;;;;;;;25.00;18.50;;;;;16.18;81.80;100847.31;5094813;28;8841;-60
2023/09/03 04:37:08;;;;;;;;;27.00;23.00;;;;;16.18;81.24;100852.69;5094892;28;8852;-58
2023/09/03 04:39:35;;;;;;;;;26.25;23.00;;;;;16.17;81.67;100850.97;5095655;28;9484;-57
2023/09/03 04:42:04;;;;;;;;;26.50;24.00;;;;;16.18;81.44;100851.84;5094544;28;8845;-58
2023/09/03 04:44:32;;;;;;;;;26.00;24.25;;;;;16.18;81.26;100847.31;5093623;28;8822;-59
2023/09/03 04:46:59;;;;;;;;;30.00;26.50;;;;;16.20;81.43;100839.94;5093962;28;8854;-58
2023/09/03 04:49:27;;;;;;;;;22.50;20.00;;;;;16.23;81.18;100843.38;5094507;28;8826;-57
2023/09/03 04:51:54;;;;;;;;;30.00;26.75;;;;;16.23;81.17;100847.75;5094232;28;8818;-59
2023/09/03 04:54:22;;;;;;;;;26.25;23.75;;;;;16.23;81.36;100843.38;5093831;28;9556;-59
2023/09/03 04:56:50;;;;;;;;;30.00;24.00;;;;;16.25;81.03;100843.09;5094845;28;8907;-58
2023/09/03 04:59:17;;;;;;;;;33.25;23.50;;;;;16.26;80.96;100846.66;5094065;28;8849;-60
2023/09/03 05:01:46;;;;;;;;;32.00;26.25;;;;;16.26;81.36;100846.66;5094376;28;9514;-59
2023/09/03 05:04:13;;;;;;;;;28.25;26.75;;;;;16.26;81.58;100846.66;5093869;28;8834;-59
2023/09/03 05:06:41;;;;;;;;;24.00;22.25;;;;;16.24;81.61;100841.41;5093918;28;8818;-58
2023/09/03 05:09:09;;;;;;;;;37.75;30.00;;;;;16.24;81.18;100841.41;5092957;28;8826;-60
2023/09/03 05:11:37;;;;;;;;;28.00;25.00;;;;;16.22;81.26;100844.38;5093584;28;8818;-58
2023/09/03 05:14:05;;;;;;;;;29.75;23.25;;;;;16.17;81.40;100842.09;5094511;28;8830;-57
2023/09/03 05:16:32;;;;;;;;;23.50;21.50;;;;;16.15;81.78;100862.00;5094222;28;8873;-58
2023/09/03 05:19:04;;;;;;;;;28.75;26.00;;;;;16.13;81.66;100861.28;5094133;28;9550;-58
2023/09/03 05:21:32;;;;;;;;;35.00;27.25;;;;;16.15;81.56;100875.44;5094046;28;9513;-59
2023/09/03 05:23:59;;;;;;;;;26.00;24.00;;;;;16.14;81.85;100879.13;5093857;28;8829;-60
2023/09/03 05:26:27;;;;;;;;;24.50;21.50;;;;;16.12;81.70;100881.94;5093920;28;9557;-58
2023/09/03 05:28:55;;;;;;;;;27.50;25.50;;;;;16.10;81.71;100886.59;5093730;28;8838;-57
2023/09/03 05:31:22;;;;;;;;;27.00;24.00;;;;;16.11;81.27;100887.44;5093918;28;8850;-58
2023/09/03 05:33:50;;;;;;;;;22.50;16.50;;;;;16.13;81.36;100888.16;5094303;28;8961;-60
2023/09/03 05:36:18;;;;;;;;;25.50;24.25;;;;;16.17;81.00;100885.09;5093788;28;8837;-60
2023/09/03 05:38:45;;;;;;;;;28.25;24.75;;;;;16.20;81.29;100882.94;5093800;28;8822;-60
2023/09/03 05:41:13;;;;;;;;;20.75;19.25;;;;;16.25;81.07;100882.56;5094641;28;9880;-58
2023/09/03 05:43:41;;;;;;;;;23.75;21.25;;;;;16.26;81.13;100887.78;5094479;28;8850;-59
2023/09/03 05:46:08;;;;;;;;;30.00;27.50;;;;;16.29;80.87;100887.53;5093120;28;9565;-60
2023/09/03 05:48:36;;;;;;;;;27.75;24.75;;;;;16.30;81.34;100896.44;5092720;28;8840;-58
2023/09/03 05:51:05;;;;;;;;;28.00;24.25;;;;;16.28;81.56;100901.97;5092764;28;8854;-60
2023/09/03 05:53:33;;;;;;;;;26.00;24.00;;;;;16.30;80.68;100909.88;5093143;28;8837;-58
2023/09/03 05:56:00;;;;;;;;;24.75;23.50;;;;;16.31;81.07;100907.06;5096470;28;8833;-59
2023/09/03 05:58:28;;;;;;;;;28.00;24.25;;;;;16.34;81.13;100911.34;5096219;28;8821;-59
2023/09/03 06:00:55;;;;;;;;;28.75;24.00;;;;;16.35;81.27;100924.63;5097558;28;8849;-60
2023/09/03 06:03:23;;;;;;;;;21.50;20.00;;;;;16.36;81.13;100931.72;5097280;28;8818;-57
2023/09/03 06:05:51;;;;;;;;;23.25;19.00;;;;;16.38;80.61;100932.47;5097385;28;8830;-58
2023/09/03 06:08:19;;;;;;;;;28.25;21.75;;;;;16.39;80.78;100931.47;5097131;28;9534;-58
2023/09/03 06:10:47;;;;;;;;;29.25;23.50;;;;;16.43;80.82;100932.94;5097008;28;8822;-58
2023/09/03 06:13:14;;;;;;;;;28.25;25.25;;;;;16.46;81.17;100932.66;5097802;28;8834;-59
2023/09/03 06:15:42;;;;;;;;;24.25;21.25;;;;;16.51;80.71;100943.00;5097481;28;8845;-58
2023/09/03 06:18:10;;;;;;;;;22.50;20.00;;;;;16.58;80.67;100955.78;5097416;28;9471;-60
2023/09/03 06:20:37;;;;;;;;;25.50;22.50;;;;;16.61;80.25;100941.19;5097414;28;8838;-60
2023/09/03 06:23:05;;;;;;;;;23.25;19.50;;;;;16.64;80.73;100947.13;5097358;28;8955;-57
2023/09/03 06:25:33;;;;;;;;;23.00;21.75;;;;;16.68;80.11;100953.97;5097500;28;8818;-60
2023/09/03 06:28:01;;;;;;;;;24.50;23.75;;;;;16.71;80.01;100967.13;5096944;28;8834;-57
2023/09/03 06:30:28;;;;;;;;;27.25;22.50;;;;;16.77;80.31;100966.59;5096623;28;8876;-60
2023/09/03 06:32:57;;;;;;;;;23.50;21.00;;;;;16.83;79.84;100971.44;5096966;28;8916;-57
2023/09/03 06:35:24;;;;;;;;;30.50;27.25;;;;;16.82;79.90;100966.19;5097121;28;8976;-58
2023/09/03 06:37:52;;;;;;;;;27.75;24.50;;;;;16.80;79.99;100969.00;5096968;28;8826;-59
2023/09/03 06:40:20;;;;;;;;;21.00;18.25;;;;;16.80;80.59;100982.44;5096760;28;8872;-59
2023/09/03 06:42:47;;;;;;;;;23.00;21.50;;;;;16.81;79.92;100978.81;5096754;28;9530;-60
2023/09/03 06:45:15;;;;;;;;;32.75;25.00;;;;;16.84;80.25;100980.34;5097042;28;8836;-60
2023/09/03 06:47:42;;;;;;;;;28.00;25.00;;;;;16.89;80.14;100978.09;5096686;28;8814;-59
2023/09/03 06:50:11;;;;;;;;;19.67;18.33;;;;;16.96;80.13;100990.03;5096419;28;8899;-58
2023/09/03 06:52:39;;;;;;;;;26.25;25.00;;;;;17.00;79.81;100984.22;5095160;28;8910;-57
2023/09/03 06:55:07;;;;;;;;;26.75;22.00;;;;;17.05;79.69;100990.06;5095014;28;8830;-58
2023/09/03 06:57:34;;;;;;;;;27.25;24.00;;;;;17.09;79.35;100996.84;5095698;28;8826;-57
2023/09/03 07:00:05;;;;;;;;;27.25;23.00;;;;;17.13;79.36;101008.19;5095510;28;8843;-57
2023/09/03 07:02:33;;;;;;;;;25.50;22.00;;;;;17.17;79.31;101015.88;5095896;28;8968;-58
2023/09/03 07:05:01;;;;;;;;;27.60;25.40;;;;;17.18;79.28;101014.91;5095328;28;8821;-58
2023/09/03 07:07:29;;;;;;;;;24.40;21.40;;;;;17.23;79.24;101014.47;5096227;28;8848;-61
2023/09/03 07:09:57;;;;;;;;;22.00;21.00;;;;;17.23;79.36;101018.00;5095645;28;8944;-60
2023/09/03 07:12:25;;;;;;;;;21.80;20.20;;;;;17.26;79.45;101020.44;5095433;28;8826;-58
2023/09/03 07:14:52;;;;;;;;;24.20;21.60;;;;;17.30;79.55;101023.72;5095601;28;8922;-59
2023/09/03 07:17:20;;;;;;;;;23.20;22.20;;;;;17.34;79.41;101034.06;5095598;28;8968;-60
2023/09/03 07:19:49;;;;;;;;;26.20;23.20;;;;;17.38;79.22;101034.69;5094675;28;8838;-59
2023/09/03 07:22:17;;;;;;;;;22.60;20.20;;;;;17.42;78.70;101036.09;5093868;28;8838;-58
2023/09/03 07:24:45;;;;;;;;;20.80;16.60;;;;;17.46;78.68;101035.66;5094195;28;8856;-59
2023/09/03 07:27:12;;;;;;;;;18.00;17.20;;;;;17.50;79.16;101045.19;5094323;28;8836;-58
2023/09/03 07:29:40;;;;;;;;;30.40;26.60;;;;;17.54;78.61;101049.28;5094865;28;8834;-58
2023/09/03 07:32:08;;;;;;;;;30.40;27.80;;;;;17.61;78.76;101042.34;5095056;28;8842;-58
2023/09/03 07:34:36;;;;;;;;;32.80;26.40;;;;;17.67;78.41;101047.19;5094398;28;8853;-60
2023/09/03 07:37:03;;;;;;;;;30.40;24.20;;;;;17.71;78.49;101051.31;5094985;28;8818;-58
2023/09/03 07:39:34;;;;;;;;;35.20;33.40;;;;;17.73;78.77;101051.16;5094736;28;8852;-60
2023/09/03 07:42:02;;;;;;;;;21.60;20.20;;;;;17.67;79.02;101052.56;5095702;28;9484;-59
2023/09/03 07:44:30;;;;;;;;;27.40;25.40;;;;;17.63;79.19;101066.47;5095054;28;8874;-58
2023/09/03 07:46:57;;;;;;;;;32.40;28.20;;;;;17.61;78.63;101063.06;5095386;28;8858;-60
2023/09/03 07:49:25;;;;;;;;;31.20;22.80;;;;;17.62;79.17;101060.22;5094791;28;8838;-60
2023/09/03 07:51:53;;;;;;;;;31.00;27.80;;;;;17.65;78.52;101059.97;5094647;28;8825;-61
2023/09/03 07:54:21;;;;;;;;;35.00;30.20;;;;;17.62;79.00;101062.91;5093757;28;8907;-59
2023/09/03 07:56:49;;;;;;;;;30.75;28.25;;;;;17.58;79.09;101063.34;5094131;28;8858;-59
2023/09/03 07:59:17;;;;;;;;;26.60;23.20;;;;;17.53;79.18;101050.28;5093702;28;9511;-59
2023/09/03 08:01:44;;;;;;;;;30.40;26.40;;;;;17.51;79.52;101057.66;5094483;28;8818;-58
2023/09/03 08:04:13;;;;;;;;;26.80;22.40;;;;;17.53;79.24;101055.66;5094182;28;9588;-58
2023/09/03 08:06:41;;;;;;;;;33.00;27.00;;;;;17.57;79.61;101054.41;5093836;28;8845;-59
2023/09/03 08:09:09;;;;;;;;;29.20;24.80;;;;;17.63;78.72;101053.84;5093269;28;8822;-58
2023/09/03 08:11:37;;;;;;;;;25.80;20.40;;;;;17.69;79.09;101061.38;5093727;28;8965;-58
2023/09/03 08:14:05;;;;;;;;;25.20;23.20;;;;;17.73;78.55;101054.72;5093874;28;8844;-60
2023/09/03 08:16:33;;;;;;;;;27.60;25.20;;;;;17.80;78.30;101058.56;5093591;28;8976;-59
2023/09/03 08:19:01;;;;;;;;;23.60;21.00;;;;;17.85;78.18;101067.06;5092137;28;8906;-58
2023/09/03 08:21:29;;;;;;;;;28.40;24.00;;;;;17.91;78.49;101069.19;5093096;28;8826;-59
2023/09/03 08:23:56;;;;;;;;;30.00;24.00;;;;;17.96;78.38;101056.16;5093127;28;8846;-58
2023/09/03 08:26:24;;;;;;;;;34.60;32.80;;;;;18.03;78.20;101056.41;5093433;28;8984;-58
2023/09/03 08:28:52;;;;;;;;;31.60;28.60;;;;;18.08;78.08;101048.75;5092974;28;9531;-59
2023/09/03 08:31:19;;;;;;;;;35.60;29.40;;;;;18.14;77.63;101049.03;5093195;28;8945;-59
2023/09/03 08:33:53;;;;;;;;;36.00;29.20;;;;;18.22;77.56;101038.38;5093320;28;8818;-57
2023/09/03 08:36:22;;;;;;;;;39.20;33.20;;;;;18.37;77.28;101041.53;5093559;28;8865;-58
2023/09/03 08:38:49;;;;;;;;;28.80;27.00;;;;;18.49;77.27;101051.16;5093748;28;8838;-60
2023/09/03 08:41:17;;;;;;;;;31.60;27.40;;;;;18.62;76.92;101041.75;5093634;28;8833;-58
2023/09/03 08:43:46;;;;;;;;;30.40;26.40;;;;;18.71;76.62;101046.28;5093361;28;8845;-58
2023/09/03 08:46:13;;;;;;;;;34.80;32.60;;;;;18.78;76.32;101036.59;5092677;28;8842;-60
2023/09/03 08:48:41;;;;;;;;;37.00;31.40;;;;;18.80;76.61;101037.28;5092787;28;9607;-59
2023/09/03 08:51:09;;;;;;;;;27.40;25.00;;;;;18.80;76.59;101033.72;5092358;28;8834;-57
2023/09/03 08:53:37;;;;;;;;;33.80;29.20;;;;;18.80;76.93;101040.00;5091863;28;8995;-57
2023/09/03 08:56:05;;;;;;;;;33.20;23.20;;;;;18.80;77.07;101037.28;5091868;28;8830;-59
2023/09/03 08:58:33;;;;;;;;;35.00;31.60;;;;;18.90;76.86;101045.34;5092274;28;8837;-59
2023/09/03 09:01:01;;;;;;;;;42.00;31.40;;;;;19.00;76.78;101048.84;5092269;28;8814;-59
2023/09/03 09:03:29;;;;;;;;;41.00;39.00;;;;;19.07;76.03;101053.53;5093067;28;8864;-59
2023/09/03 09:05:57;;;;;;;;;36.20;30.20;;;;;19.15;76.15;101060.88;5092613;28;8868;-58
2023/09/03 09:08:24;;;;;;;;;30.40;27.40;;;;;19.18;75.98;101056.03;5092873;28;8838;-58
2023/09/03 09:10:52;;;;;;;;;33.20;30.60;;;;;19.19;75.77;101055.06;5091810;28;8856;-57
2023/09/03 09:13:21;;;;;;;;;30.60;28.60;;;;;19.16;75.71;101049.94;5092114;28;8854;-57
2023/09/03 09:15:49;;;;;;;;;33.40;30.60;;;;;19.25;76.23;101054.47;5091974;28;8850;-58
2023/09/03 09:18:17;;;;;;;;;39.20;31.80;;;;;19.45;75.43;101068.72;5091120;28;8842;-57
2023/09/03 09:20:45;;;;;;;;;37.80;35.60;;;;;19.70;74.92;101074.25;5091539;28;8849;-58
2023/09/03 09:23:13;;;;;;;;;39.60;34.80;;;;;19.95;74.67;101073.47;5091868;28;8830;-58
2023/09/03 09:25:40;;;;;;;;;28.40;26.80;;;;;20.10;74.37;101082.78;5092013;28;8841;-60
2023/09/03 09:28:08;;;;;;;;;35.20;31.60;;;;;20.31;73.66;101077.91;5092477;28;8829;-58
2023/09/03 09:30:36;;;;;;;;;37.80;33.20;;;;;20.57;72.84;101068.00;5096140;28;8842;-59
2023/09/03 09:33:04;;;;;;;;;30.20;28.40;;;;;20.78;72.79;101071.16;5095898;28;8915;-59
2023/09/03 09:35:32;;;;;;;;;35.60;29.80;;;;;20.93;72.64;101072.31;5096077;28;8838;-59
2023/09/03 09:37:59;;;;;;;;;32.20;30.00;;;;;21.01;71.97;101067.78;5095964;28;8868;-59
2023/09/03 09:40:28;;;;;;;;;36.40;33.80;;;;;21.04;72.57;101074.75;5096350;28;8975;-59
2023/09/03 09:42:56;;;;;;;;;32.00;29.60;;;;;21.07;72.33;101066.28;5096072;28;8821;-58
2023/09/03 09:45:24;;;;;;;;;42.40;36.80;;;;;21.16;72.43;101068.03;5096391;28;8838;-60
2023/09/03 09:47:51;;;;;;;;;37.40;32.80;;;;;21.28;72.40;101061.31;5095990;28;8923;-58
2023/09/03 09:50:19;;;;;;;;;34.60;31.00;;;;;21.42;72.09;101057.97;5096384;28;8825;-61
2023/09/03 09:52:47;;;;;;;;;37.60;31.00;;;;;21.57;71.34;101056.34;5097098;28;8972;-61
2023/09/03 09:55:14;;;;;;;;;32.40;30.20;;;;;21.75;70.98;101054.38;5096753;28;8948;-60
2023/09/03 09:57:42;;;;;;;;;28.60;26.40;;;;;21.97;70.29;101051.88;5096363;28;8969;-58
2023/09/03 10:00:11;;;;;;;;;41.20;33.60;;;;;22.48;69.44;101048.00;5095778;28;8864;-60
2023/09/03 10:02:39;;;;;;;;;32.40;28.40;;;;;23.13;68.56;101047.69;5095325;28;8837;-58
2023/09/03 10:05:07;;;;;;;;;39.60;34.40;;;;;23.85;66.80;101046.50;5094750;28;8826;-60
2023/09/03 10:07:35;;;;;;;;;38.40;33.00;;;;;24.49;65.63;101046.03;5095263;28;8842;-58
2023/09/03 10:10:05;;;;;;;;;33.00;32.40;;;;;25.00;65.23;101050.63;5094231;28;8822;-59
2023/09/03 10:12:33;;;;;;;;;34.40;31.80;;;;;25.50;64.00;101050.72;5094091;28;8849;-59
2023/09/03 10:15:01;;;;;;;;;39.00;33.00;;;;;25.83;64.22;101056.41;5094103;28;8859;-60
2023/09/03 10:17:28;;;;;;;;;31.20;30.60;;;;;26.08;63.33;101046.84;5093949;28;8853;-60
2023/09/03 10:19:56;;;;;;;;;30.00;28.40;;;;;26.68;62.62;101046.34;5094163;28;8834;-59
2023/09/03 10:22:24;;;;;;;;;28.60;26.40;;;;;27.15;61.74;101046.47;5093839;28;8838;-59
2023/09/03 10:24:52;;;;;;;;;26.00;24.20;;;;;27.64;61.02;101058.94;5094479;28;8830;-59
2023/09/03 10:27:20;;;;;;;;;29.60;27.80;;;;;28.11;60.25;101053.41;5094266;28;8878;-60
2023/09/03 10:29:48;;;;;;;;;28.80;25.80;;;;;28.64;59.27;101049.69;5095006;28;8906;-58
2023/09/03 10:32:16;;;;;;;;;34.60;29.20;;;;;28.73;59.12;101045.66;5095109;28;8842;-60
2023/09/03 10:34:44;;;;;;;;;27.00;23.80;;;;;28.61;59.84;101050.09;5095007;28;9549;-60
2023/09/03 10:37:11;;;;;;;;;27.60;26.20;;;;;28.41;60.18;101046.53;5094385;28;8826;-61
2023/09/03 10:39:40;;;;;;;;;27.20;25.60;;;;;28.24;61.03;101056.19;5094919;28;9022;-60
2023/09/03 10:42:08;;;;;;;;;29.00;26.80;;;;;28.15;61.44;101054.66;5094256;28;8927;-59
2023/09/03 10:44:36;;;;;;;;;24.80;24.60;;;;;28.06;62.32;101044.97;5094421;28;8940;-62
2023/09/03 10:47:04;;;;;;;;;23.20;20.60;;;;;28.03;62.45;101045.41;5095275;28;8846;-60
2023/09/03 10:49:33;;;;;;;;;32.00;27.20;;;;;28.03;62.25;101056.34;5094979;28;8838;-61
2023/09/03 10:52:01;;;;;;;;;19.40;19.20;;;;;28.14;61.78;101052.16;5094509;28;8826;-61
2023/09/03 10:54:29;;;;;;;;;22.40;21.20;;;;;28.38;61.21;101049.66;5094168;28;8860;-59
2023/09/03 10:56:56;;;;;;;;;26.40;23.20;;;;;28.66;60.65;101042.09;5092532;28;8845;-59
2023/09/03 10:59:24;;;;;;;;;20.80;19.40;;;;;28.72;60.20;101049.47;5090283;28;8858;-59
2023/09/03 11:01:52;;;;;;;;;23.20;22.60;;;;;28.76;60.43;101047.16;5090216;28;8932;-61
2023/09/03 11:04:20;;;;;;;;;19.20;18.20;;;;;28.84;60.52;101049.66;5092961;28;8840;-61
2023/09/03 11:06:48;;;;;;;;;24.80;23.60;;;;;28.86;60.40;101042.91;5092376;28;8826;-60
2023/09/03 11:09:16;;;;;;;;;15.00;13.60;;;;;28.60;60.63;101048.41;5091613;28;8810;-59
2023/09/03 11:11:44;;;;;;;;;21.60;19.20;;;;;28.29;61.80;101045.41;5092320;28;8968;-59
2023/09/03 11:14:13;;;;;;;;;20.00;19.00;;;;;28.24;62.23;101033.41;5093256;28;8834;-60
2023/09/03 11:16:41;;;;;;;;;17.40;15.60;;;;;28.22;62.31;101033.59;5093082;28;8842;-59
2023/09/03 11:19:08;;;;;;;;;20.40;16.40;;;;;28.33;61.92;101034.88;5092759;28;8833;-58